Time;durP1;ratioP1;P1;durP2;ratioP2;P2;SDS_P1;SDS_P2;PMS_P1;PMS_P2;Temp;Humidity;BMP_temperature;BMP_pressure;BME280_temperature;BME280_humidity;BME280_pressure;Samples;Min_cycle;Max_cycle;Signal;HPM_P1;HPM_P2
2023/11/29 00:00:34;;;;;;;1.38;1.27;;;;;;;1.62;94.43;99315.19;4966472;28;20038;-73
2023/11/29 00:02:59;;;;;;;2.17;1.45;;;;;;;1.53;95.28;99309.16;4968292;28;20490;-73
2023/11/29 00:05:25;;;;;;;0.77;0.77;;;;;;;1.49;95.65;99300.31;4980513;28;20417;-73
2023/11/29 00:07:50;;;;;;;1.40;0.95;;;;;;;1.63;95.87;99298.16;4977216;28;20039;-74
2023/11/29 00:10:16;;;;;;;1.40;1.27;;;;;;;1.66;95.73;99307.34;4960574;28;20382;-73
2023/11/29 00:12:41;;;;;;;3.47;2.25;;;;;;;1.81;95.34;99299.50;4955270;28;20062;-73
2023/11/29 00:15:08;;;;;;;1.60;1.30;;;;;;;1.73;95.07;99292.41;4959345;28;20042;-74
2023/11/29 00:17:33;;;;;;;1.33;1.20;;;;;;;1.83;95.60;99284.03;4957127;28;20027;-73
2023/11/29 00:19:59;;;;;;;2.53;2.08;;;;;;;1.90;95.31;99294.09;4980473;28;20045;-73
2023/11/29 00:22:24;;;;;;;1.20;1.17;;;;;;;1.96;94.90;99282.16;4976626;28;20398;-73
2023/11/29 00:24:50;;;;;;;3.60;1.55;;;;;;;1.92;95.26;99281.25;4958704;28;20096;-73
2023/11/29 00:27:16;;;;;;;5.30;2.15;;;;;;;1.85;95.47;99273.09;4981622;28;20026;-72
2023/11/29 00:29:42;;;;;;;3.42;2.63;;;;;;;1.93;95.52;99261.59;4976757;28;20034;-73
2023/11/29 00:32:08;;;;;;;2.65;2.15;;;;;;;1.97;95.75;99261.72;4954958;28;20486;-73
2023/11/29 00:34:33;;;;;;;1.38;1.27;;;;;;;1.91;95.89;99260.38;4945805;28;20073;-73
2023/11/29 00:36:59;;;;;;;2.25;2.05;;;;;;;1.78;97.21;99265.66;4962928;28;20041;-74
2023/11/29 00:39:25;;;;;;;5.40;1.88;;;;;;;1.94;96.97;99257.03;4981487;28;20022;-72
2023/11/29 00:41:50;;;;;;;1.10;1.05;;;;;;;2.09;95.86;99256.41;4963349;28;20042;-74
2023/11/29 00:44:16;;;;;;;1.52;1.42;;;;;;;2.09;95.63;99249.19;4950457;28;20085;-73
2023/11/29 00:46:41;;;;;;;2.05;1.90;;;;;;;2.13;95.92;99239.47;4960480;28;20026;-74
2023/11/29 00:49:10;;;;;;;1.60;1.48;;;;;;;2.11;95.79;99251.53;4946156;28;20118;-74
2023/11/29 00:51:35;;;;;;;2.35;1.58;;;;;;;2.07;96.32;99237.38;4974108;28;20398;-73
2023/11/29 00:54:01;;;;;;;2.03;1.13;;;;;;;2.11;96.10;99222.34;4959538;28;20026;-74
2023/11/29 00:56:26;;;;;;;1.58;0.82;;;;;;;2.03;96.74;99223.22;4985900;28;20404;-74
2023/11/29 00:58:53;;;;;;;3.13;1.92;;;;;;;2.17;96.37;99219.09;4983201;28;20038;-73
2023/11/29 01:01:19;;;;;;;4.05;1.77;;;;;;;2.16;96.59;99222.09;4953237;28;20042;-74
2023/11/29 01:03:45;;;;;;;4.55;2.40;;;;;;;2.18;96.86;99220.66;4953990;28;20433;-74
2023/11/29 01:06:10;;;;;;;1.52;0.68;;;;;;;2.14;96.78;99211.81;4963299;28;20041;-74
2023/11/29 01:08:36;;;;;;;2.40;1.73;;;;;;;2.27;97.00;99210.69;4936213;28;20034;-74
2023/11/29 01:11:01;;;;;;;6.50;2.75;;;;;;;2.32;96.30;99209.69;4953242;28;20502;-74
2023/11/29 01:13:28;;;;;;;2.63;2.25;;;;;;;2.20;96.49;99201.75;4939529;28;20525;-74
2023/11/29 01:15:53;;;;;;;2.92;1.70;;;;;;;2.30;96.55;99201.28;4958459;28;20031;-73
2023/11/29 01:18:20;;;;;;;2.38;1.60;;;;;;;2.31;96.58;99208.13;4958687;28;20588;-74
2023/11/29 01:20:46;;;;;;;1.83;1.13;;;;;;;2.34;96.86;99210.13;4955186;28;20037;-74
2023/11/29 01:23:12;;;;;;;1.17;1.08;;;;;;;2.35;96.38;99209.00;4977544;28;20034;-74
2023/11/29 01:25:38;;;;;;;2.20;1.67;;;;;;;2.40;96.71;99211.44;4940748;28;20031;-73
2023/11/29 01:28:05;;;;;;;1.35;1.23;;;;;;;2.45;96.69;99209.31;4954467;28;20039;-73
2023/11/29 01:30:31;;;;;;;1.42;1.20;;;;;;;2.43;96.43;99198.25;4958792;28;20041;-74
2023/11/29 01:32:57;;;;;;;2.58;1.42;;;;;;;2.57;95.82;99206.63;4971877;28;20097;-73
2023/11/29 01:35:23;;;;;;;2.30;1.92;;;;;;;2.56;95.90;99207.72;4981777;28;20081;-73
2023/11/29 01:37:48;;;;;;;2.45;1.90;;;;;;;2.51;96.47;99205.31;4962589;28;20038;-73
2023/11/29 01:40:16;;;;;;;1.95;1.75;;;;;;;2.59;96.53;99208.94;4962731;28;20030;-73
2023/11/29 01:42:41;;;;;;;1.77;1.65;;;;;;;2.60;96.25;99197.97;4964862;28;20030;-73
2023/11/29 01:45:07;;;;;;;2.30;1.17;;;;;;;2.67;96.82;99200.06;4981432;28;20057;-73
2023/11/29 01:47:34;;;;;;;1.33;1.25;;;;;;;2.63;96.16;99199.94;4952016;28;20401;-73
2023/11/29 01:50:02;;;;;;;3.42;2.63;;;;;;;2.74;96.05;99195.72;4978286;28;20035;-73
2023/11/29 01:52:30;;;;;;;5.07;2.40;;;;;;;2.71;96.60;99196.38;4985146;28;20089;-73
2023/11/29 01:54:55;;;;;;;4.68;2.45;;;;;;;2.76;96.23;99195.38;4959498;28;20520;-73
2023/11/29 01:57:22;;;;;;;3.22;2.22;;;;;;;2.70;96.83;99184.22;4945315;28;20038;-74
2023/11/29 01:59:48;;;;;;;4.22;2.30;;;;;;;2.84;96.23;99191.81;4979146;28;20523;-73
2023/11/29 02:02:13;;;;;;;2.60;2.20;;;;;;;2.87;96.24;99199.09;4962859;28;20122;-73
2023/11/29 02:04:39;;;;;;;2.50;2.30;;;;;;;2.95;96.06;99174.25;4977732;28;20054;-73
2023/11/29 02:07:05;;;;;;;4.78;3.13;;;;;;;2.99;96.17;99180.41;4940273;28;20078;-73
2023/11/29 02:09:30;;;;;;;2.65;2.38;;;;;;;3.08;95.81;99177.63;4959752;28;20046;-74
2023/11/29 02:11:58;;;;;;;4.43;2.40;;;;;;;3.01;95.90;99169.44;4959203;28;20050;-73
2023/11/29 02:14:23;;;;;;;3.15;2.30;;;;;;;2.89;96.55;99164.97;4950928;28;20022;-73
2023/11/29 02:16:49;;;;;;;6.85;2.15;;;;;;;2.99;96.92;99158.38;4954816;28;20520;-73
2023/11/29 02:19:14;;;;;;;3.30;2.92;;;;;;;2.87;97.40;99156.56;4981405;28;20536;-73
2023/11/29 02:21:41;;;;;;;2.63;2.30;;;;;;;3.00;97.55;99152.72;4970821;28;20058;-74
2023/11/29 02:24:12;;;;;;;3.63;2.80;;;;;;;2.82;97.84;99148.06;4955871;28;20054;-74
2023/11/29 02:26:38;;;;;;;2.78;2.17;;;;;;;2.94;97.93;99143.47;4960689;28;20536;-74
2023/11/29 02:29:03;;;;;;;3.60;2.45;;;;;;;3.02;97.45;99136.44;4957109;28;20078;-74
2023/11/29 02:31:28;;;;;;;6.22;3.03;;;;;;;3.09;97.65;99145.38;4957579;28;20030;-73
2023/11/29 02:33:57;;;;;;;4.53;3.10;;;;;;;3.03;97.40;99141.41;4959026;28;20512;-73
2023/11/29 02:36:23;;;;;;;4.00;3.15;;;;;;;3.16;97.44;99132.25;4979709;28;20130;-73
2023/11/29 02:38:49;;;;;;;4.30;2.33;;;;;;;3.16;96.95;99131.44;4941930;28;20560;-73
2023/11/29 02:41:14;;;;;;;5.03;3.13;;;;;;;3.12;97.66;99131.38;4959089;28;20029;-73
2023/11/29 02:43:40;;;;;;;4.15;2.65;;;;;;;3.25;97.19;99132.06;4957141;28;20481;-74
2023/11/29 02:46:05;;;;;;;4.63;3.28;;;;;;;3.23;97.02;99129.75;4961103;28;20042;-74
2023/11/29 02:48:30;;;;;;;4.40;2.28;;;;;;;3.24;97.25;99136.63;4956710;28;20026;-74
2023/11/29 02:50:59;;;;;;;3.28;2.97;;;;;;;3.29;97.17;99127.63;4961121;28;20026;-74
2023/11/29 02:53:25;;;;;;;5.43;2.38;;;;;;;3.25;97.13;99118.78;4953903;28;20081;-74
2023/11/29 02:55:50;;;;;;;5.55;2.92;;;;;;;3.31;97.07;99117.41;4956871;28;20070;-74
2023/11/29 02:58:15;;;;;;;3.58;2.97;;;;;;;3.27;97.20;99119.97;4975013;28;20564;-74
2023/11/29 03:00:42;;;;;;;3.47;2.25;;;;;;;3.32;97.32;99117.06;4956387;28;20541;-74
2023/11/29 03:03:08;;;;;;;3.08;2.58;;;;;;;3.30;97.19;99113.97;4962072;28;20558;-74
2023/11/29 03:05:33;;;;;;;3.17;2.17;;;;;;;3.39;97.19;99105.78;4946186;28;20034;-74
2023/11/29 03:08:04;;;;;;;4.50;3.25;;;;;;;3.43;97.00;99106.66;4940640;28;20691;-73
2023/11/29 03:10:29;;;;;;;3.08;2.67;;;;;;;3.31;97.38;99104.13;4956877;28;20035;-74
2023/11/29 03:12:55;;;;;;;6.90;3.05;;;;;;;3.38;97.50;99099.72;4957434;28;20033;-74
2023/11/29 03:15:20;;;;;;;4.45;3.17;;;;;;;3.43;97.27;99096.78;4940976;28;20058;-73
2023/11/29 03:17:45;;;;;;;3.38;2.60;;;;;;;3.37;97.38;99098.16;4976131;28;20078;-74
2023/11/29 03:20:11;;;;;;;5.55;3.03;;;;;;;3.46;97.31;99093.44;4958504;28;20034;-74
2023/11/29 03:22:37;;;;;;;4.45;2.58;;;;;;;3.44;96.86;99090.38;4955241;28;20101;-74
2023/11/29 03:25:03;;;;;;;3.92;2.83;;;;;;;3.48;97.34;99095.75;4957686;28;20074;-74
2023/11/29 03:27:29;;;;;;;4.40;3.53;;;;;;;3.45;97.13;99096.44;4960905;28;20038;-74
2023/11/29 03:29:55;;;;;;;3.80;2.53;;;;;;;3.47;97.22;99088.88;4960014;28;20031;-74
2023/11/29 03:32:21;;;;;;;8.05;3.50;;;;;;;3.39;97.36;99090.63;4959178;28;20038;-74
2023/11/29 03:34:46;;;;;;;5.15;3.55;;;;;;;3.34;98.87;99093.56;4947057;28;20418;-73
2023/11/29 03:37:12;;;;;;;3.85;2.40;;;;;;;3.42;98.27;99087.28;4958947;28;20124;-73
2023/11/29 03:39:38;;;;;;;2.10;1.80;;;;;;;3.46;97.81;99085.47;4956080;28;20598;-74
2023/11/29 03:42:03;;;;;;;3.58;3.15;;;;;;;3.63;96.97;99087.75;4964069;28;20117;-73
2023/11/29 03:44:29;;;;;;;4.85;3.53;;;;;;;3.62;96.52;99078.22;4945860;28;20169;-74
2023/11/29 03:46:54;;;;;;;8.55;4.03;;;;;;;3.58;96.76;99088.00;4961119;28;20038;-74
2023/11/29 03:49:20;;;;;;;5.45;2.80;;;;;;;3.66;96.60;99073.75;4967200;28;20576;-73
2023/11/29 03:51:45;;;;;;;7.22;3.15;;;;;;;3.66;96.17;99065.75;4959822;28;20490;-71
2023/11/29 03:54:11;;;;;;;4.68;2.63;;;;;;;3.62;95.88;99072.09;4962965;28;20076;-74
2023/11/29 03:56:36;;;;;;;5.13;2.58;;;;;;;3.53;97.08;99069.66;4960530;28;20061;-73
2023/11/29 03:59:02;;;;;;;2.92;2.20;;;;;;;3.59;97.24;99070.94;4977269;28;20238;-73
2023/11/29 04:01:32;;;;;;;2.05;1.55;;;;;;;3.57;97.64;99067.84;4941172;28;20038;-74
2023/11/29 04:03:57;;;;;;;5.17;3.60;;;;;;;3.62;97.08;99067.56;4979464;28;20181;-73
2023/11/29 04:06:27;;;;;;;3.92;2.95;;;;;;;3.72;96.72;99058.25;4946655;28;20548;-73
2023/11/29 04:08:53;;;;;;;3.75;2.40;;;;;;;3.66;96.91;99055.09;4956605;28;20045;-73
2023/11/29 04:11:21;;;;;;;5.72;3.22;;;;;;;3.54;97.56;99057.13;4958952;28;20034;-73
2023/11/29 04:13:47;;;;;;;3.63;2.47;;;;;;;3.65;97.57;99063.44;4965983;28;20041;-74
2023/11/29 04:16:27;;;;;;;4.43;2.42;;;;;;;3.67;96.87;99050.56;4945988;28;20421;-74
2023/11/29 04:18:53;;;;;;;2.97;2.72;;;;;;;3.67;96.96;99040.69;4962008;28;20035;-74
2023/11/29 04:21:27;;;;;;;2.83;2.42;;;;;;;3.66;97.06;99049.78;4959216;28;20781;-73
2023/11/29 04:23:52;;;;;;;3.42;2.45;;;;;;;3.74;96.74;99048.03;4950821;28;20146;-73
2023/11/29 04:26:38;;;;;;;5.45;3.28;;;;;;;3.71;96.67;99042.66;4961962;28;20397;-74
2023/11/29 04:29:06;;;;;;;3.92;2.17;;;;;;;3.71;96.74;99045.31;4974346;28;20023;-73
2023/11/29 04:31:32;;;;;;;2.38;2.17;;;;;;;3.66;96.82;99038.38;4964222;28;20023;-73
2023/11/29 04:34:02;;;;;;;8.85;3.75;;;;;;;3.67;97.29;99035.38;4972368;28;20089;-73
2023/11/29 04:36:27;;;;;;;6.03;3.30;;;;;;;3.72;96.92;99036.22;4945879;28;20039;-72
2023/11/29 04:38:53;;;;;;;4.75;2.55;;;;;;;3.70;97.50;99028.56;4962728;28;20057;-73
2023/11/29 04:41:24;;;;;;;4.07;3.25;;;;;;;3.72;97.41;99030.91;4962952;28;20049;-73
2023/11/29 04:43:50;;;;;;;2.78;2.38;;;;;;;3.77;97.01;99030.63;4966481;28;20040;-73
2023/11/29 04:46:15;;;;;;;3.47;2.05;;;;;;;3.75;96.84;99011.56;4980210;28;20034;-73
2023/11/29 04:48:45;;;;;;;2.95;2.00;;;;;;;3.76;97.11;99016.53;4962051;28;20552;-73
2023/11/29 04:51:11;;;;;;;4.05;2.58;;;;;;;3.71;96.92;99011.50;4969554;28;20040;-72
2023/11/29 04:53:39;;;;;;;5.10;2.92;;;;;;;3.74;97.13;99015.31;4971281;28;20399;-73
2023/11/29 04:56:06;;;;;;;3.72;3.20;;;;;;;3.64;97.53;99012.09;4957048;28;20110;-72
2023/11/29 04:58:36;;;;;;;3.80;2.60;;;;;;;3.68;97.42;99015.63;4962197;28;20035;-73
2023/11/29 05:01:01;;;;;;;8.50;4.07;;;;;;;3.70;97.56;99009.19;4977666;28;20039;-73
2023/11/29 05:03:27;;;;;;;4.20;3.38;;;;;;;3.73;97.68;99008.47;4973491;28;20034;-73
2023/11/29 05:05:52;;;;;;;4.78;3.67;;;;;;;3.65;98.25;99000.34;4967151;28;20089;-73
2023/11/29 05:08:19;;;;;;;5.07;3.38;;;;;;;3.84;97.00;99001.47;4976721;28;20494;-73
2023/11/29 05:10:45;;;;;;;6.03;4.50;;;;;;;3.73;96.87;98995.94;4954500;28;20049;-73
2023/11/29 05:13:10;;;;;;;6.03;3.22;;;;;;;3.78;97.61;98998.31;4962232;28;20317;-73
2023/11/29 05:15:36;;;;;;;6.82;3.72;;;;;;;3.83;97.29;98999.94;4975398;28;20477;-73
2023/11/29 05:18:02;;;;;;;5.68;3.83;;;;;;;3.87;96.41;98992.78;4976477;28;20043;-73
2023/11/29 05:20:28;;;;;;;5.35;3.05;;;;;;;3.95;95.60;99003.22;4975583;28;20034;-73
2023/11/29 05:22:53;;;;;;;5.18;3.35;;;;;;;3.86;96.44;98996.56;4956492;28;20046;-73
2023/11/29 05:25:19;;;;;;;4.70;3.65;;;;;;;3.89;96.74;98996.63;4973951;28;20524;-72
2023/11/29 05:27:45;;;;;;;5.00;3.17;;;;;;;3.85;97.17;98995.03;4957554;28;20034;-72
2023/11/29 05:30:11;;;;;;;6.00;3.80;;;;;;;3.85;96.96;98997.69;4975612;28;20060;-72
2023/11/29 05:32:36;;;;;;;3.13;2.45;;;;;;;3.92;96.18;98985.28;4959967;28;20118;-73
2023/11/29 05:35:02;;;;;;;4.28;2.92;;;;;;;3.93;96.47;98986.81;4956015;28;20031;-72
2023/11/29 05:37:27;;;;;;;3.70;2.08;;;;;;;3.83;96.90;98990.06;4979315;28;20521;-72
2023/11/29 05:39:55;;;;;;;3.75;2.28;;;;;;;3.86;96.82;98988.56;4975789;28;20551;-72
2023/11/29 05:42:20;;;;;;;5.20;3.47;;;;;;;3.96;96.19;98986.13;4961138;28;20036;-72
2023/11/29 05:44:47;;;;;;;3.95;2.38;;;;;;;3.84;96.03;98974.84;4964113;28;20038;-72
2023/11/29 05:47:13;;;;;;;5.70;3.15;;;;;;;3.83;97.06;98974.09;4976684;28;20036;-73
2023/11/29 05:49:39;;;;;;;3.17;2.85;;;;;;;3.79;97.52;98972.47;4976122;28;20561;-73
2023/11/29 05:52:05;;;;;;;4.10;3.08;;;;;;;3.86;96.90;98975.25;4963021;28;20030;-72
2023/11/29 05:54:30;;;;;;;4.20;2.40;;;;;;;3.84;97.43;98977.50;4941931;28;20073;-72
2023/11/29 05:56:57;;;;;;;5.10;2.50;;;;;;;3.79;97.37;98977.81;4977168;28;20026;-73
2023/11/29 05:59:23;;;;;;;4.03;3.03;;;;;;;3.84;97.91;98982.84;4980712;28;20034;-72
2023/11/29 06:01:51;;;;;;;3.45;2.67;;;;;;;3.87;98.27;98984.81;4972580;28;20049;-73
2023/11/29 06:04:17;;;;;;;2.85;2.38;;;;;;;3.88;97.21;98991.66;4979693;28;20031;-72
2023/11/29 06:06:43;;;;;;;3.42;2.72;;;;;;;3.89;97.70;98993.22;4979720;28;20076;-72
2023/11/29 06:09:09;;;;;;;5.45;3.08;;;;;;;3.92;97.29;98992.50;4965202;28;20101;-72
2023/11/29 06:11:35;;;;;;;3.63;2.70;;;;;;;3.88;97.38;98989.00;4958973;28;20041;-72
2023/11/29 06:14:00;;;;;;;3.42;2.25;;;;;;;3.85;97.76;98981.72;4944451;28;20125;-73
2023/11/29 06:16:26;;;;;;;5.15;2.72;;;;;;;3.89;97.34;98977.25;4946720;28;20031;-73
2023/11/29 06:18:51;;;;;;;3.85;2.40;;;;;;;3.99;97.05;98985.41;4975070;28;20057;-72
2023/11/29 06:21:17;;;;;;;4.53;3.10;;;;;;;3.90;97.27;98979.56;4960260;28;20030;-73
2023/11/29 06:23:42;;;;;;;3.13;2.28;;;;;;;3.91;96.98;98986.41;4974511;28;21751;-72
2023/11/29 06:26:07;;;;;;;3.90;3.28;;;;;;;3.84;97.69;98980.94;4979828;28;20041;-72
2023/11/29 06:28:38;;;;;;;3.22;2.55;;;;;;;3.89;97.60;98983.31;4981819;28;20545;-72
2023/11/29 06:31:08;;;;;;;3.70;2.28;;;;;;;3.89;97.26;98987.91;4951808;28;20034;-71
2023/11/29 06:33:34;;;;;;;4.90;2.85;;;;;;;3.87;97.50;98980.22;4963305;28;20022;-72
2023/11/29 06:36:03;;;;;;;3.55;2.65;;;;;;;3.89;97.18;98979.91;4966260;28;20505;-70
2023/11/29 06:38:28;;;;;;;3.45;2.30;;;;;;;3.92;96.98;98979.97;4978803;28;20406;-72
2023/11/29 06:40:54;;;;;;;3.95;2.95;;;;;;;3.96;97.44;98986.13;4966945;28;20038;-72
2023/11/29 06:43:20;;;;;;;6.25;4.13;;;;;;;3.91;97.15;98983.00;4940591;28;20046;-72
2023/11/29 06:45:51;;;;;;;6.95;4.32;;;;;;;3.89;97.96;98977.25;4973178;28;20034;-72
2023/11/29 06:48:18;;;;;;;;;;;;;;;4.00;96.72;98986.97;4956490;28;20117;-72
2023/11/29 06:50:44;;;;;;;3.53;1.80;;;;;;;3.92;97.64;98989.84;4973695;28;19947;-72
2023/11/29 06:53:10;;;;;;;3.17;2.90;;;;;;;3.96;97.32;98986.13;4956541;28;20603;-72
2023/11/29 06:55:36;;;;;;;5.05;3.28;;;;;;;4.02;97.58;98991.94;4977517;28;20057;-72
2023/11/29 06:58:05;;;;;;;4.35;3.42;;;;;;;4.08;96.50;98988.66;4971081;28;20034;-72
2023/11/29 07:00:30;;;;;;;4.97;3.30;;;;;;;4.05;96.42;98988.56;4973482;28;20034;-72
2023/11/29 07:02:55;;;;;;;4.22;3.58;;;;;;;3.97;97.20;98990.31;4968959;28;20048;-72
2023/11/29 07:05:21;;;;;;;4.70;3.47;;;;;;;3.99;97.33;98985.41;4963649;28;20038;-72
2023/11/29 07:07:48;;;;;;;5.53;3.80;;;;;;;3.93;97.43;98989.47;4956331;28;20050;-72
2023/11/29 07:10:14;;;;;;;4.68;2.72;;;;;;;4.04;97.72;98981.72;4976542;28;20088;-72
2023/11/29 07:12:39;;;;;;;3.65;2.97;;;;;;;4.14;96.69;98999.78;4960457;28;20030;-74
2023/11/29 07:15:05;;;;;;;6.32;2.78;;;;;;;4.13;96.63;98993.69;4976774;28;20454;-72
2023/11/29 07:17:31;;;;;;;3.75;2.75;;;;;;;4.05;96.70;98993.88;4966671;28;20038;-72
2023/11/29 07:19:56;;;;;;;3.42;2.85;;;;;;;4.03;97.16;98999.56;4979067;28;20035;-72
2023/11/29 07:22:25;;;;;;;5.60;3.72;;;;;;;4.06;97.12;98992.78;4958793;28;20038;-72
2023/11/29 07:24:52;;;;;;;4.25;2.60;;;;;;;4.08;96.91;99001.19;4959249;28;20415;-72
2023/11/29 07:27:19;;;;;;;4.28;2.97;;;;;;;4.10;97.04;98993.63;4979826;28;20612;-72
2023/11/29 07:29:45;;;;;;;3.80;3.00;;;;;;;4.18;96.44;99005.94;4972461;28;20030;-72
2023/11/29 07:32:11;;;;;;;5.10;3.38;;;;;;;4.20;96.38;98993.78;4976798;28;20030;-72
2023/11/29 07:34:36;;;;;;;3.70;2.95;;;;;;;4.18;96.12;99000.63;4957568;28;20023;-72
2023/11/29 07:37:02;;;;;;;5.18;3.28;;;;;;;4.15;96.64;98995.97;4963377;28;20140;-72
2023/11/29 07:39:27;;;;;;;3.65;2.83;;;;;;;4.23;96.07;98992.31;4965149;28;20121;-73
2023/11/29 07:41:56;;;;;;;5.95;3.40;;;;;;;4.22;95.81;98994.22;4985963;28;20129;-72
2023/11/29 07:44:21;;;;;;;3.80;2.50;;;;;;;4.21;95.94;98990.03;4978187;28;20065;-72
2023/11/29 07:46:49;;;;;;;2.95;2.72;;;;;;;4.09;96.77;98992.06;4958994;28;20054;-72
2023/11/29 07:49:17;;;;;;;5.53;3.63;;;;;;;4.12;96.62;98991.38;4961094;28;20550;-72
2023/11/29 07:51:45;;;;;;;5.88;4.00;;;;;;;4.17;96.55;98986.53;4958297;28;20049;-72
2023/11/29 07:54:14;;;;;;;5.47;2.40;;;;;;;4.21;96.15;98981.25;4954211;28;20034;-73
2023/11/29 07:56:43;;;;;;;5.55;3.33;;;;;;;4.24;96.20;98989.31;4960301;28;20038;-72
2023/11/29 07:59:09;;;;;;;7.25;3.88;;;;;;;4.21;96.62;98989.25;4943728;28;20089;-72
2023/11/29 08:01:35;;;;;;;3.08;2.60;;;;;;;4.14;96.72;98997.88;4960411;28;20409;-70
2023/11/29 08:04:01;;;;;;;4.32;2.72;;;;;;;4.14;97.01;98991.78;4961209;28;20031;-72
2023/11/29 08:06:28;;;;;;;3.28;2.70;;;;;;;4.22;96.93;98993.47;4944022;28;20157;-72
2023/11/29 08:08:55;;;;;;;4.32;3.03;;;;;;;4.32;96.29;98995.53;4977052;28;20472;-72
2023/11/29 08:11:23;;;;;;;4.13;3.50;;;;;;;4.30;96.01;98995.09;4976942;28;20035;-72
2023/11/29 08:13:50;;;;;;;4.20;2.97;;;;;;;4.31;95.77;98989.44;4953436;28;20027;-72
2023/11/29 08:16:16;;;;;;;4.75;3.00;;;;;;;4.26;96.38;98989.72;4961185;28;20031;-71
2023/11/29 08:18:41;;;;;;;2.88;2.47;;;;;;;4.32;96.02;98995.53;4979496;28;20453;-72
2023/11/29 08:21:08;;;;;;;3.83;2.80;;;;;;;4.31;95.50;98994.00;4956327;28;20034;-72
2023/11/29 08:23:33;;;;;;;4.97;3.47;;;;;;;4.27;96.25;98993.94;4959025;28;20034;-72
2023/11/29 08:25:59;;;;;;;8.02;3.58;;;;;;;4.29;96.42;98993.59;4974889;28;20050;-72
2023/11/29 08:28:24;;;;;;;4.45;3.00;;;;;;;4.33;96.14;98987.19;4943587;28;20080;-72
2023/11/29 08:30:50;;;;;;;7.15;3.92;;;;;;;4.33;95.67;98995.19;4969884;28;20057;-71
2023/11/29 08:33:16;;;;;;;17.35;4.07;;;;;;;4.33;96.01;98995.19;4978068;28;20038;-72
2023/11/29 08:35:43;;;;;;;3.65;2.50;;;;;;;4.25;96.60;98990.88;4961798;28;20042;-72
2023/11/29 08:38:11;;;;;;;4.50;2.50;;;;;;;4.35;96.06;98998.28;4978887;28;20035;-72
2023/11/29 08:40:37;;;;;;;2.58;2.38;;;;;;;4.43;95.62;98988.50;4974816;28;20382;-72
2023/11/29 08:43:02;;;;;;;4.50;3.60;;;;;;;4.36;95.68;98991.81;4974855;28;20038;-72
2023/11/29 08:45:28;;;;;;;3.35;2.55;;;;;;;4.31;96.06;98978.78;4962646;28;20091;-72
2023/11/29 08:47:53;;;;;;;5.82;3.35;;;;;;;4.36;96.13;98977.72;4957877;28;20073;-72
2023/11/29 08:50:19;;;;;;;4.63;3.42;;;;;;;4.35;96.35;98981.50;4960755;28;20100;-72
2023/11/29 08:52:46;;;;;;;4.85;3.40;;;;;;;4.35;96.18;98984.97;4962826;28;20027;-72
2023/11/29 08:55:12;;;;;;;3.70;2.75;;;;;;;4.33;96.74;98978.44;4961417;28;20031;-72
2023/11/29 08:57:40;;;;;;;3.30;2.53;;;;;;;4.45;96.51;98980.94;4945024;28;20041;-71
2023/11/29 09:00:07;;;;;;;4.28;3.20;;;;;;;4.41;96.07;98982.75;4977038;28;20418;-72
2023/11/29 09:02:36;;;;;;;4.15;2.28;;;;;;;4.56;95.74;98981.88;4959882;28;20031;-69
2023/11/29 09:05:04;;;;;;;5.75;3.55;;;;;;;4.46;96.08;98985.13;4978224;28;20027;-72
2023/11/29 09:07:32;;;;;;;5.22;3.40;;;;;;;4.46;96.26;98979.78;4977571;28;20022;-72
2023/11/29 09:09:58;;;;;;;3.67;2.45;;;;;;;4.53;96.01;98975.34;4975508;28;20027;-72
2023/11/29 09:12:25;;;;;;;6.47;2.75;;;;;;;4.48;96.08;98980.22;4956302;28;21527;-72
2023/11/29 09:14:55;;;;;;;4.10;2.90;;;;;;;4.44;96.13;98974.06;4955250;28;20018;-72
2023/11/29 09:17:22;;;;;;;7.22;4.20;;;;;;;4.56;96.27;98979.22;4971303;28;20403;-72
2023/11/29 09:19:49;;;;;;;5.65;3.50;;;;;;;4.54;95.68;98979.56;4954265;28;20678;-71
2023/11/29 09:22:15;;;;;;;4.65;3.05;;;;;;;4.50;96.02;98977.97;4974568;28;20113;-72
2023/11/29 09:24:40;;;;;;;5.63;3.13;;;;;;;4.52;96.16;98981.03;4958872;28;20166;-71
2023/11/29 09:27:05;;;;;;;6.05;3.30;;;;;;;4.53;96.03;98982.56;4978160;28;20145;-72
2023/11/29 09:29:32;;;;;;;3.17;2.90;;;;;;;4.62;95.27;98983.13;4969914;28;20421;-72
2023/11/29 09:31:59;;;;;;;2.38;2.17;;;;;;;4.63;95.49;98989.22;4963721;28;20113;-72
2023/11/29 09:34:24;;;;;;;4.72;4.07;;;;;;;4.61;95.67;98988.81;4931320;28;20793;-71
2023/11/29 09:36:50;;;;;;;5.38;3.40;;;;;;;4.51;95.69;98974.16;4956795;28;20037;-71
2023/11/29 09:39:17;;;;;;;3.92;2.55;;;;;;;4.58;95.51;98990.28;4964579;28;20035;-73
2023/11/29 09:41:46;;;;;;;6.18;3.35;;;;;;;4.67;95.23;98982.03;4951467;28;20418;-72
2023/11/29 09:44:14;;;;;;;5.40;3.63;;;;;;;4.61;95.38;98978.91;4964420;28;20575;-72
2023/11/29 09:46:41;;;;;;;4.15;3.05;;;;;;;4.47;95.88;98979.44;4974472;28;20042;-72
2023/11/29 09:49:08;;;;;;;5.93;3.13;;;;;;;4.55;96.27;98978.44;4940674;28;20062;-71
2023/11/29 09:51:33;;;;;;;4.05;3.17;;;;;;;4.70;95.14;98984.00;4976862;28;20458;-72
2023/11/29 09:53:59;;;;;;;4.50;2.90;;;;;;;4.62;95.66;98975.13;4973577;28;20022;-72
2023/11/29 09:56:24;;;;;;;5.03;3.58;;;;;;;4.70;95.32;98973.34;4942272;28;20129;-70
2023/11/29 09:58:50;;;;;;;4.60;3.13;;;;;;;4.72;95.25;98976.41;4952629;28;20043;-72
2023/11/29 10:01:16;;;;;;;6.68;3.70;;;;;;;4.71;95.48;98975.63;4957121;28;20053;-71
2023/11/29 10:03:42;;;;;;;3.22;2.72;;;;;;;4.75;95.07;98968.47;4955478;28;20027;-72
2023/11/29 10:06:10;;;;;;;7.05;4.05;;;;;;;4.68;95.05;98971.03;4979700;28;20066;-72
2023/11/29 10:08:36;;;;;;;7.32;3.10;;;;;;;4.64;96.14;98962.22;4975914;28;20065;-72
2023/11/29 10:11:01;;;;;;;2.88;2.38;;;;;;;4.67;95.54;98964.16;4973631;28;20030;-72
2023/11/29 10:13:30;;;;;;;4.25;2.97;;;;;;;4.66;95.74;98967.19;4971339;28;20037;-72
2023/11/29 10:15:55;;;;;;;6.57;2.63;;;;;;;4.69;95.86;98969.91;4959921;28;21850;-72
2023/11/29 10:18:21;;;;;;;4.00;2.63;;;;;;;4.77;94.95;98963.56;4955988;28;20074;-72
2023/11/29 10:20:51;;;;;;;3.65;3.22;;;;;;;4.79;94.64;98966.63;4975029;28;20658;-72
2023/11/29 10:23:16;;;;;;;4.03;2.80;;;;;;;4.70;94.89;98958.13;4966663;28;20401;-71
2023/11/29 10:25:48;;;;;;;4.65;2.90;;;;;;;4.68;94.94;98967.59;4967634;28;20085;-72
2023/11/29 10:28:13;;;;;;;12.77;4.65;;;;;;;4.63;95.17;98973.22;4968764;28;20030;-72
2023/11/29 10:30:40;;;;;;;7.07;4.10;;;;;;;4.51;95.88;98960.84;4973405;28;20208;-72
2023/11/29 10:33:09;;;;;;;6.10;3.10;;;;;;;4.58;96.18;98967.06;4951715;28;20027;-72
2023/11/29 10:35:37;;;;;;;8.82;4.60;;;;;;;4.60;95.71;98969.38;4967174;28;20046;-72
2023/11/29 10:38:13;;;;;;;4.28;3.17;;;;;;;4.65;96.32;98968.28;4953648;28;20050;-72
2023/11/29 10:40:40;;;;;;;4.57;3.00;;;;;;;4.68;95.48;98963.03;4935885;28;20096;-72
2023/11/29 10:43:09;;;;;;;10.60;4.55;;;;;;;4.69;95.01;98963.78;4954681;28;20033;-71
2023/11/29 10:45:39;;;;;;;4.32;2.90;;;;;;;4.56;96.19;98960.56;4967232;28;20503;-72
2023/11/29 10:48:11;;;;;;;4.82;2.63;;;;;;;4.57;95.57;98959.41;4974193;28;21503;-72
2023/11/29 10:50:38;;;;;;;5.03;2.63;;;;;;;4.58;96.03;98966.28;4965288;28;20694;-72
2023/11/29 10:53:05;;;;;;;4.18;2.85;;;;;;;4.52;96.39;98963.16;4962692;28;20035;-72
2023/11/29 10:55:35;;;;;;;7.00;2.78;;;;;;;4.52;96.43;98960.50;4949071;28;20030;-72
2023/11/29 10:58:39;;;;;;;4.35;2.90;;;;;;;4.63;96.51;98962.56;4938871;28;20402;-72
2023/11/29 11:01:06;;;;;;;7.90;3.75;;;;;;;4.58;96.41;98964.41;4970806;28;20422;-72
2023/11/29 11:03:42;;;;;;;6.80;4.75;;;;;;;4.68;95.56;98959.59;4974778;28;20042;-72
2023/11/29 11:06:23;;;;;;;9.88;4.20;;;;;;;4.72;95.68;98955.88;4976497;28;20047;-72
2023/11/29 11:08:50;;;;;;;12.52;4.70;;;;;;;4.79;95.20;98958.63;4970131;28;20031;-72
2023/11/29 11:11:43;;;;;;;3.67;2.75;;;;;;;4.63;95.76;98957.25;4964103;28;20449;-72
2023/11/29 11:14:21;;;;;;;5.63;3.70;;;;;;;4.56;96.24;98956.00;4976604;28;20055;-72
2023/11/29 11:16:58;;;;;;;5.65;3.85;;;;;;;4.56;96.75;98953.34;4976967;28;20483;-72
2023/11/29 11:19:34;;;;;;;6.70;4.25;;;;;;;4.64;96.98;98953.44;4974798;28;20042;-72
2023/11/29 11:22:09;;;;;;;5.80;4.03;;;;;;;4.69;96.50;98945.91;4971187;28;20525;-72
2023/11/29 11:24:53;;;;;;;5.40;3.63;;;;;;;4.84;95.49;98944.97;4967273;28;20034;-71
2023/11/29 11:27:22;;;;;;;5.82;4.22;;;;;;;4.72;96.01;98942.53;4967627;28;20065;-72
2023/11/29 11:29:48;;;;;;;5.07;3.42;;;;;;;4.79;96.50;98942.63;4974870;28;20050;-72
2023/11/29 11:32:32;;;;;;;4.50;3.60;;;;;;;4.76;95.97;98947.91;4970828;28;20034;-72
2023/11/29 11:35:21;;;;;;;7.25;4.60;;;;;;;4.72;96.35;98934.53;4975061;28;20026;-73
2023/11/29 11:37:55;;;;;;;5.25;3.72;;;;;;;4.67;96.45;98934.06;4958457;28;20065;-72
2023/11/29 11:40:24;;;;;;;3.88;2.90;;;;;;;4.87;95.71;98936.28;4959428;28;20041;-72